Time;durP1;ratioP1;P1;durP2;ratioP2;P2;SDS_P1;SDS_P2;PMS_P1;PMS_P2;Temp;Humidity;BMP_temperature;BMP_pressure;BME280_temperature;BME280_humidity;BME280_pressure;Samples;Min_cycle;Max_cycle;Signal;HPM_P1;HPM_P2
2023/07/31 00:01:19;;;;;;;2.97;2.53;;;;;;;12.05;100.00;96159.44;7406279;19;20441;-93
2023/07/31 00:03:49;;;;;;;3.40;2.40;;;;;;;11.52;100.00;96044.13;7428040;19;20372;-93
2023/07/31 00:06:17;;;;;;;2.47;2.27;;;;;;;10.72;100.00;95943.69;7418176;19;20381;-93
2023/07/31 00:08:44;;;;;;;5.73;2.47;;;;;;;10.05;100.00;95830.44;7398527;19;20401;-94
2023/07/31 00:11:11;;;;;;;2.87;2.40;;;;;;;10.86;100.00;95957.31;7396342;19;20752;-94
2023/07/31 00:14:02;;;;;;;4.70;2.80;;;;;;;11.35;100.00;96057.63;7399496;19;20412;-94
2023/07/31 00:16:30;;;;;;;2.97;2.70;;;;;;;11.71;100.00;96120.25;7396042;19;20392;-94
2023/07/31 00:18:58;;;;;;;7.83;2.60;;;;;;;11.54;100.00;96065.72;7399796;19;20399;-94
2023/07/31 00:21:25;;;;;;;4.57;2.90;;;;;;;10.47;100.00;95925.25;7398458;19;20428;-94
2023/07/31 00:23:52;;;;;;;3.90;2.70;;;;;;;9.76;100.00;95793.78;7398591;19;20380;-94
2023/07/31 00:26:19;;;;;;;5.93;2.50;;;;;;;11.06;100.00;95997.88;7397508;19;20397;-94
2023/07/31 00:28:46;;;;;;;5.37;2.67;;;;;;;10.18;100.00;95870.03;7397173;19;20373;-94
2023/07/31 00:31:13;;;;;;;3.23;2.10;;;;;;;10.65;100.00;95945.03;7398897;19;20423;-94
2023/07/31 00:33:41;;;;;;;3.27;2.90;;;;;;;9.87;100.00;95828.38;7395322;19;20376;-93
2023/07/31 00:36:08;;;;;;;4.03;2.63;;;;;;;11.08;100.00;95996.44;7394328;19;20406;-94
2023/07/31 00:38:35;;;;;;;5.60;2.90;;;;;;;10.77;100.00;95951.38;7395392;19;20409;-91
2023/07/31 00:41:02;;;;;;;2.27;2.17;;;;;;;10.81;100.00;95952.22;7400134;19;20429;-91
2023/07/31 00:43:29;;;;;;;4.43;2.67;;;;;;;11.46;100.00;96085.16;7398784;19;20413;-91
2023/07/31 00:45:56;;;;;;;5.47;2.67;;;;;;;11.02;100.00;96016.31;7396802;19;20393;-91
2023/07/31 00:48:24;;;;;;;2.20;2.00;;;;;;;10.08;100.00;95890.53;7395881;19;20982;-91
2023/07/31 00:50:52;;;;;;;7.90;2.87;;;;;;;11.08;100.00;96027.41;7401102;19;20417;-92
2023/07/31 00:53:20;;;;;;;4.70;3.73;;;;;;;9.49;100.00;95797.91;7429961;19;20392;-93
2023/07/31 00:55:49;;;;;;;3.07;2.77;;;;;;;9.37;100.00;95795.25;7420369;19;20361;-90
2023/07/31 00:58:16;;;;;;;2.50;2.30;;;;;;;9.31;100.00;95792.06;7396071;19;20385;-92
2023/07/31 01:00:44;;;;;;;4.10;2.40;;;;;;;10.75;100.00;95980.81;7396894;19;20392;-93
2023/07/31 01:03:12;;;;;;;3.60;2.20;;;;;;;10.88;100.00;96006.09;7400407;19;20396;-93
2023/07/31 01:06:04;;;;;;;6.57;3.40;;;;;;;10.91;100.00;96004.66;7398769;19;20397;-92
2023/07/31 01:08:47;;;;;;;3.13;2.93;;;;;;;10.24;100.00;95916.28;7396682;19;20381;-92
2023/07/31 01:11:25;;;;;;;3.13;2.03;;;;;;;9.63;100.00;95795.66;7398132;19;20425;-93
2023/07/31 01:13:56;;;;;;;6.90;3.30;;;;;;;10.24;100.00;95871.38;7396882;19;20737;-93
2023/07/31 01:16:26;;;;;;;5.47;3.00;;;;;;;10.83;100.00;95965.91;7394120;19;20401;-93
2023/07/31 01:18:54;;;;;;;3.90;2.17;;;;;;;10.75;100.00;95951.72;7398327;19;20905;-93
2023/07/31 01:21:35;;;;;;;9.47;3.07;;;;;;;9.53;100.00;95766.31;7395330;19;20420;-94
2023/07/31 01:24:30;;;;;;;3.47;2.83;;;;;;;11.88;100.00;96112.03;7395535;19;20456;-93
2023/07/31 01:27:12;;;;;;;4.80;2.40;;;;;;;11.12;100.00;96039.66;7397579;19;20474;-93
2023/07/31 01:29:56;;;;;;;5.03;2.60;;;;;;;10.57;100.00;95961.81;7395708;19;20384;-93
2023/07/31 01:32:27;;;;;;;4.70;2.70;;;;;;;11.31;100.00;96123.72;7393467;19;20412;-94
2023/07/31 01:34:55;;;;;;;4.33;2.50;;;;;;;10.72;100.00;95994.69;7395617;19;20467;-91
2023/07/31 01:37:28;;;;;;;5.10;2.57;;;;;;;9.22;100.00;95765.03;7394846;19;20393;-91
2023/07/31 01:39:55;;;;;;;5.70;2.90;;;;;;;11.42;100.00;96093.03;7396990;19;20715;-91
2023/07/31 01:42:22;;;;;;;4.40;3.00;;;;;;;10.36;100.00;95914.38;7399631;19;20414;-91
2023/07/31 01:44:50;;;;;;;3.97;3.20;;;;;;;11.31;100.00;96044.31;7401939;19;20384;-91
2023/07/31 01:47:17;;;;;;;6.20;2.90;;;;;;;9.92;100.00;95833.47;7420996;19;20373;-92
2023/07/31 01:49:44;;;;;;;3.37;3.07;;;;;;;10.59;100.00;95924.44;7431973;19;20373;-92
2023/07/31 01:52:11;;;;;;;3.30;3.00;;;;;;;10.06;100.00;95829.34;7425513;19;20408;-92
2023/07/31 01:54:38;;;;;;;4.07;3.20;;;;;;;10.95;100.00;95973.78;7414516;19;20424;-91
2023/07/31 01:57:06;;;;;;;3.30;2.93;;;;;;;10.65;100.00;95915.16;7401340;19;20385;-91
2023/07/31 02:02:49;;;;;;;3.70;3.07;;;;;;;10.17;100.00;95823.59;7400302;19;20397;-91
2023/07/31 02:09:01;;;;;;;4.27;2.60;;;;;;;9.62;100.00;95765.09;7401585;19;20820;-91
2023/07/31 02:11:40;;;;;;;3.73;2.70;;;;;;;9.29;100.00;95730.97;7397563;19;20415;-91
2023/07/31 02:14:13;;;;;;;3.00;2.80;;;;;;;10.48;100.00;95910.94;7397904;19;20383;-91
2023/07/31 02:16:42;;;;;;;3.90;2.90;;;;;;;10.77;100.00;95962.72;7399338;19;20500;-91
2023/07/31 02:19:10;;;;;;;3.80;2.60;;;;;;;10.20;100.00;95881.03;7396742;19;20484;-91
2023/07/31 02:21:37;;;;;;;2.90;2.40;;;;;;;10.32;100.00;95876.53;7398687;19;20413;-91
2023/07/31 02:24:15;;;;;;;6.07;3.40;;;;;;;10.23;100.00;95860.03;7403954;19;20429;-91
2023/07/31 02:26:50;;;;;;;5.60;3.40;;;;;;;10.83;100.00;95931.53;7397802;19;20461;-91
2023/07/31 02:29:17;;;;;;;3.53;3.27;;;;;;;10.84;100.00;95922.50;7398001;19;20445;-91
2023/07/31 02:31:44;;;;;;;4.33;2.63;;;;;;;11.01;100.00;95924.84;7396300;19;20457;-92
2023/07/31 02:35:15;;;;;;;;;;;;;;;;;;;;;
2023/07/31 02:41:00;;;;;;;2.67;2.40;;;;;;;11.99;100.00;96067.28;7421385;19;20477;-92
2023/07/31 02:43:35;;;;;;;3.17;2.87;;;;;;;10.57;100.00;95837.56;7426273;19;20407;-93
2023/07/31 02:46:31;;;;;;;6.13;3.57;;;;;;;12.17;100.00;96046.53;7422155;19;20404;-93
2023/07/31 02:50:02;;;;;;;;;;;;;;;;;;;;;
2023/07/31 02:52:58;;;;;;;3.60;2.60;;;;;;;12.04;100.00;96054.56;7419231;19;20455;-94
2023/07/31 04:32:12;;;;;;;3.40;2.57;;;;;;;11.94;100.00;95858.22;7423082;19;20389;-94
2023/07/31 04:34:39;;;;;;;5.37;3.33;;;;;;;12.32;100.00;95931.75;7418876;19;20432;-94
2023/07/31 04:37:09;;;;;;;3.37;2.47;;;;;;;12.21;100.00;95905.00;7416566;19;20429;-95
2023/07/31 04:39:50;;;;;;;5.30;2.57;;;;;;;12.40;100.00;95928.88;7419281;19;20393;-95
2023/07/31 04:42:24;;;;;;;3.63;2.50;;;;;;;11.76;100.00;95823.41;7429181;19;20392;-96
2023/07/31 04:44:58;;;;;;;6.30;3.23;;;;;;;12.22;100.00;95895.16;7425608;19;20410;-96
2023/07/31 04:47:29;;;;;;;4.27;2.67;;;;;;;12.25;100.00;95895.22;7426713;19;20381;-96
2023/07/31 04:49:56;;;;;;;5.00;2.83;;;;;;;12.33;100.00;95906.75;7430638;19;20395;-95
2023/07/31 04:52:23;;;;;;;5.27;3.03;;;;;;;12.67;100.00;95942.28;7426591;19;20409;-96
2023/07/31 04:54:51;;;;;;;3.13;2.60;;;;;;;11.92;100.00;95821.50;7421568;19;20452;-95
2023/07/31 04:57:18;;;;;;;6.13;3.40;;;;;;;12.66;100.00;95911.59;7416212;19;20405;-94
2023/07/31 04:59:45;;;;;;;3.83;2.63;;;;;;;12.67;100.00;95934.34;7419799;19;20381;-94
2023/07/31 05:02:14;;;;;;;2.67;2.30;;;;;;;12.13;100.00;95848.41;7417953;19;20413;-94
2023/07/31 05:04:41;;;;;;;3.60;2.37;;;;;;;12.59;100.00;95914.13;7413776;19;20436;-95
2023/07/31 05:07:09;;;;;;;4.77;2.53;;;;;;;12.32;100.00;95873.41;7417350;19;20388;-92
2023/07/31 05:09:46;;;;;;;3.80;2.50;;;;;;;12.58;100.00;95873.56;7418167;19;20380;-92
2023/07/31 05:12:13;;;;;;;2.60;2.40;;;;;;;12.16;100.00;95817.06;7417924;19;20381;-93
2023/07/31 05:14:41;;;;;;;3.37;3.03;;;;;;;13.02;100.00;95911.16;7417074;19;20420;-91
2023/07/31 05:17:08;;;;;;;6.53;2.77;;;;;;;13.89;100.00;96045.13;7420351;19;20404;-92
2023/07/31 05:19:35;;;;;;;3.93;2.23;;;;;;;13.35;100.00;95949.66;7421326;19;20380;-93
2023/07/31 05:22:02;;;;;;;3.10;2.50;;;;;;;13.27;100.00;95948.78;7425145;19;20401;-93
2023/07/31 05:24:30;;;;;;;4.20;3.30;;;;;;;13.79;100.00;96010.41;7423854;19;20762;-93
2023/07/31 05:26:57;;;;;;;7.30;5.47;;;;;;;13.12;100.00;95911.69;7422800;19;20372;-93
2023/07/31 05:29:24;;;;;;;4.63;2.77;;;;;;;12.93;100.00;95897.31;7426794;19;20453;-93
2023/07/31 05:31:51;;;;;;;6.03;2.50;;;;;;;13.09;100.00;95912.38;7424891;19;20389;-93
2023/07/31 05:34:18;;;;;;;5.10;2.40;;;;;;;12.75;100.00;95884.84;7423015;19;20409;-92
2023/07/31 05:36:45;;;;;;;2.43;2.30;;;;;;;12.55;100.00;95853.03;7426754;19;20408;-93
2023/07/31 05:39:12;;;;;;;3.50;2.20;;;;;;;12.34;100.00;95821.59;7427711;19;20413;-93
2023/07/31 05:41:39;;;;;;;4.60;2.47;;;;;;;13.88;100.00;96061.41;7430127;19;20387;-93
2023/07/31 05:44:06;;;;;;;4.03;2.97;;;;;;;13.22;100.00;95954.41;7425452;19;20424;-92
2023/07/31 05:46:33;;;;;;;2.87;2.57;;;;;;;13.68;100.00;96012.88;7428015;19;20410;-91
2023/07/31 05:49:14;;;;;;;8.37;2.50;;;;;;;13.88;100.00;96058.75;7426273;19;20384;-92
2023/07/31 05:51:59;;;;;;;3.80;2.30;;;;;;;12.38;100.00;95838.31;7425389;19;20385;-92
2023/07/31 05:54:47;;;;;;;3.27;2.60;;;;;;;14.01;100.00;96052.13;7423403;19;20424;-93
2023/07/31 05:57:54;;;;;;;2.90;2.63;;;;;;;13.16;100.00;95915.19;7425034;19;20396;-95
2023/07/31 06:01:34;;;;;;;2.93;2.30;;;;;;;14.03;100.00;96041.19;7423421;19;20449;-94
2023/07/31 06:04:14;;;;;;;4.20;2.30;;;;;;;14.02;100.00;96040.41;7430232;19;20409;-92
2023/07/31 06:07:12;;;;;;;5.67;2.50;;;;;;;13.11;100.00;95892.34;7426763;19;20400;-92
2023/07/31 06:10:15;;;;;;;5.70;3.00;;;;;;;14.24;100.00;96032.75;7425331;19;20397;-93
2023/07/31 06:13:06;;;;;;;4.40;2.40;;;;;;;13.59;100.00;95901.50;7427426;19;20393;-93
2023/07/31 06:22:29;;;;;;;9.97;4.20;;;;;;;13.94;100.00;95871.28;7402608;19;20436;-91
2023/07/31 06:33:06;;;;;;;5.67;2.73;;;;;;;13.24;100.00;95704.50;7398039;19;20402;-91
2023/07/31 06:35:39;;;;;;;7.80;2.30;;;;;;;13.00;100.00;95697.66;7398356;19;20396;-90
2023/07/31 06:38:15;;;;;;;2.57;2.37;;;;;;;13.06;100.00;95737.94;7400062;19;20385;-90
2023/07/31 06:40:48;;;;;;;5.73;3.70;;;;;;;14.09;100.00;95875.69;7401124;19;20416;-90
2023/07/31 06:43:24;;;;;;;5.13;2.17;;;;;;;12.96;100.00;95684.34;7397962;19;20820;-90
2023/07/31 06:46:04;;;;;;;3.33;3.00;;;;;;;13.31;100.00;95684.09;7399584;19;20399;-90
2023/07/31 06:48:33;;;;;;;2.40;2.20;;;;;;;13.90;100.00;95764.94;7401212;19;20464;-89
2023/07/31 06:51:04;;;;;;;5.20;3.63;;;;;;;13.74;100.00;95731.69;7397865;19;20456;-90
2023/07/31 06:53:31;;;;;;;6.83;3.00;;;;;;;15.79;100.00;96051.13;7401044;19;20380;-89
2023/07/31 06:55:58;;;;;;;2.20;2.00;;;;;;;13.66;100.00;95714.16;7395453;19;20972;-89
2023/07/31 06:58:26;;;;;;;3.20;2.90;;;;;;;13.67;100.00;95708.47;7396284;19;20414;-89
2023/07/31 07:00:58;;;;;;;2.80;2.57;;;;;;;14.98;100.00;95900.72;7398078;19;20955;-89
2023/07/31 07:03:25;;;;;;;4.37;2.43;;;;;;;15.01;100.00;95931.16;7397727;19;20368;-90
2023/07/31 07:05:55;;;;;;;7.50;2.97;;;;;;;14.31;100.00;95810.25;7401319;19;20403;-90
2023/07/31 07:08:29;;;;;;;4.20;3.80;;;;;;;14.91;100.00;95883.91;7396869;19;20365;-89
2023/07/31 07:11:00;;;;;;;3.50;2.43;;;;;;;14.51;100.00;95810.88;7401413;19;20471;-90
2023/07/31 07:13:30;;;;;;;4.53;2.00;;;;;;;13.78;100.00;95696.09;7401248;19;20388;-89
2023/07/31 07:16:01;;;;;;;2.40;2.20;;;;;;;15.43;100.00;95919.41;7402451;19;20478;-90
2023/07/31 07:18:39;;;;;;;2.90;2.30;;;;;;;14.25;100.00;95760.38;7399789;19;20924;-89
2023/07/31 07:21:40;;;;;;;6.47;4.13;;;;;;;15.06;100.00;95867.69;7408915;19;20468;-90
2023/07/31 07:24:36;;;;;;;5.50;3.20;;;;;;;13.84;100.00;95683.22;7431344;19;20417;-90
2023/07/31 07:27:31;;;;;;;11.57;2.73;;;;;;;14.01;100.00;95711.13;7404488;19;20400;-91
2023/07/31 07:30:03;;;;;;;8.00;2.80;;;;;;;14.94;100.00;95859.97;7400293;19;20460;-91
2023/07/31 07:32:32;;;;;;;3.93;3.20;;;;;;;15.53;100.00;95961.38;7394682;19;20448;-91
2023/07/31 07:34:59;;;;;;;6.80;2.93;;;;;;;15.12;100.00;95892.13;7400779;19;20381;-91
2023/07/31 07:37:30;;;;;;;2.57;1.93;;;;;;;13.93;100.00;95720.16;7395590;19;20408;-90
2023/07/31 07:40:03;;;;;;;3.73;2.30;;;;;;;13.86;100.00;95707.53;7396912;19;20373;-90
2023/07/31 07:42:41;;;;;;;4.00;2.20;;;;;;;13.83;100.00;95695.00;7399694;19;20424;-90
2023/07/31 07:45:09;;;;;;;3.23;2.70;;;;;;;13.86;100.00;95699.56;7400173;19;20384;-90
2023/07/31 07:47:36;;;;;;;4.20;3.77;;;;;;;14.76;100.00;95854.47;7398163;19;20384;-91
2023/07/31 07:50:03;;;;;;;3.53;3.00;;;;;;;14.16;100.00;95758.78;7400094;19;20381;-90
2023/07/31 07:52:35;;;;;;;8.40;2.70;;;;;;;14.90;100.00;95877.03;7399336;19;20428;-91
2023/07/31 07:55:03;;;;;;;3.00;2.70;;;;;;;15.17;100.00;95952.25;7401419;19;20408;-91
2023/07/31 07:57:30;;;;;;;4.60;2.70;;;;;;;14.65;100.00;95879.44;7422302;19;20381;-92
2023/07/31 07:59:57;;;;;;;8.70;3.43;;;;;;;14.93;100.00;95906.34;7433703;19;20436;-92
2023/07/31 08:02:24;;;;;;;5.50;3.43;;;;;;;15.70;100.00;96019.44;7405000;19;20445;-91
2023/07/31 08:04:52;;;;;;;3.47;3.17;;;;;;;15.59;100.00;95999.88;7401341;19;20373;-91
2023/07/31 08:07:19;;;;;;;2.53;2.33;;;;;;;14.24;100.00;95807.50;7397350;19;20399;-91
2023/07/31 08:09:45;;;;;;;4.00;2.40;;;;;;;14.88;100.00;95890.72;7396068;19;20385;-91
2023/07/31 08:12:12;;;;;;;6.03;3.50;;;;;;;14.94;100.00;95836.00;7396270;19;20408;-92
2023/07/31 08:14:40;;;;;;;3.80;3.13;;;;;;;15.08;100.00;95857.44;7396080;19;20384;-91
2023/07/31 08:17:07;;;;;;;3.83;3.20;;;;;;;15.14;100.00;95847.22;7397889;19;20908;-91
2023/07/31 08:19:48;;;;;;;8.57;3.67;;;;;;;14.68;100.00;95766.94;7397760;19;20739;-91
2023/07/31 08:22:15;;;;;;;5.80;3.80;;;;;;;16.55;100.00;96067.38;7400342;19;20470;-91
2023/07/31 08:24:42;;;;;;;12.40;3.10;;;;;;;16.25;100.00;96019.50;7395989;19;20408;-89
2023/07/31 08:27:09;;;;;;;8.20;2.87;;;;;;;16.10;100.00;95993.88;7399202;19;20388;-90
2023/07/31 08:29:36;;;;;;;6.00;2.83;;;;;;;14.57;100.00;95750.13;7396099;19;20384;-90
2023/07/31 08:32:03;;;;;;;3.10;2.50;;;;;;;15.95;100.00;95955.66;7397007;19;20401;-90
2023/07/31 08:34:30;;;;;;;3.73;2.53;;;;;;;16.29;100.00;95980.28;7396100;19;20833;-90
2023/07/31 08:36:57;;;;;;;3.50;2.70;;;;;;;16.34;100.00;95977.28;7398322;19;20368;-90
2023/07/31 08:39:24;;;;;;;4.70;2.80;;;;;;;16.66;100.00;96014.81;7396188;19;20400;-90
2023/07/31 08:41:51;;;;;;;3.80;2.57;;;;;;;16.31;100.00;95959.34;7397012;19;20423;-89
2023/07/31 08:44:18;;;;;;;6.13;3.63;;;;;;;17.04;100.00;96045.56;7397914;19;20360;-91
2023/07/31 08:46:47;;;;;;;4.13;2.90;;;;;;;15.80;100.00;95882.03;7398854;19;20928;-92
2023/07/31 08:49:15;;;;;;;4.40;3.60;;;;;;;16.72;100.00;96028.63;7401724;19;20462;-91
2023/07/31 08:51:42;;;;;;;4.03;3.57;;;;;;;15.72;100.00;95875.13;7407583;19;20416;-92
2023/07/31 08:54:09;;;;;;;5.90;3.13;;;;;;;16.81;100.00;96029.81;7406652;19;20407;-91
2023/07/31 08:56:37;;;;;;;3.60;2.87;;;;;;;16.43;100.00;95943.03;7407929;19;20345;-91
2023/07/31 08:59:05;;;;;;;6.03;3.10;;;;;;;16.95;100.00;95969.59;7404925;19;20770;-90
2023/07/31 09:01:39;;;;;;;5.90;2.80;;;;;;;17.16;100.00;95985.72;7405000;19;20420;-89
2023/07/31 09:04:09;;;;;;;3.93;2.60;;;;;;;17.30;100.00;95974.28;7405214;19;20799;-90
2023/07/31 09:06:37;;;;;;;6.47;3.30;;;;;;;17.13;100.00;95949.81;7405636;19;20384;-90
2023/07/31 09:09:04;;;;;;;3.70;2.80;;;;;;;17.48;100.00;95960.97;7407295;19;20428;-90
2023/07/31 09:11:31;;;;;;;7.60;3.47;;;;;;;17.61;100.00;95936.16;7404517;19;20428;-90
2023/07/31 09:14:01;;;;;;;4.10;2.83;;;;;;;17.32;100.00;95929.25;7405707;19;21213;-90
2023/07/31 09:16:31;;;;;;;6.70;2.93;;;;;;;17.23;100.00;95951.00;7403998;19;20919;-90
2023/07/31 09:19:01;;;;;;;4.33;2.87;;;;;;;17.29;100.00;95970.09;7406969;19;20398;-90
2023/07/31 09:21:29;;;;;;;6.90;3.70;;;;;;;17.90;100.00;96005.75;7401619;19;20443;-90
2023/07/31 09:23:56;;;;;;;6.33;3.10;;;;;;;17.90;100.00;95985.13;7406158;19;20392;-90
2023/07/31 09:26:34;;;;;;;5.90;2.90;;;;;;;17.85;100.00;95915.19;7405213;19;20372;-90
2023/07/31 09:29:07;;;;;;;6.07;3.10;;;;;;;18.69;100.00;95998.44;7407659;19;20386;-89
2023/07/31 09:31:42;;;;;;;3.53;2.93;;;;;;;18.88;100.00;96011.41;7403911;19;20408;-90
2023/07/31 09:34:16;;;;;;;4.43;3.10;;;;;;;18.77;100.00;96000.72;7403406;19;20923;-90
2023/07/31 09:36:48;;;;;;;4.60;2.87;;;;;;;18.11;100.00;95879.22;7405714;19;20716;-90
2023/07/31 09:39:17;;;;;;;3.67;3.00;;;;;;;19.04;100.00;96001.00;7403791;19;20369;-90
2023/07/31 09:41:47;;;;;;;3.20;2.47;;;;;;;17.82;100.00;95836.47;7402151;19;20388;-90
2023/07/31 09:44:13;;;;;;;6.73;3.10;;;;;;;18.67;100.00;95937.22;7404290;19;20402;-90
2023/07/31 09:46:40;;;;;;;5.60;2.77;;;;;;;18.68;100.00;95984.28;7406364;19;20401;-90
2023/07/31 09:49:11;;;;;;;4.23;3.17;;;;;;;18.86;100.00;95979.66;7409322;19;20384;-88
2023/07/31 09:51:39;;;;;;;7.37;3.00;;;;;;;18.76;100.00;95968.97;7410929;19;20385;-89
2023/07/31 09:54:11;;;;;;;6.13;2.60;;;;;;;18.65;100.00;95930.72;7407572;19;20377;-90
2023/07/31 09:56:47;;;;;;;3.00;2.50;;;;;;;18.77;100.00;95968.56;7413636;19;20392;-90
2023/07/31 09:59:18;;;;;;;4.57;2.67;;;;;;;18.93;100.00;95970.81;7405774;19;20730;-89
2023/07/31 10:01:50;;;;;;;5.40;2.40;;;;;;;18.90;100.00;95942.13;7398920;19;20416;-90
2023/07/31 10:04:20;;;;;;;5.80;2.63;;;;;;;19.20;100.00;95942.34;7403742;19;20425;-90
2023/07/31 10:06:49;;;;;;;5.23;3.27;;;;;;;19.11;100.00;95942.03;7404130;19;20377;-89
2023/07/31 10:09:18;;;;;;;2.93;2.70;;;;;;;19.24;100.00;95923.59;7417858;19;20393;-89
2023/07/31 10:11:56;;;;;;;4.43;2.50;;;;;;;19.32;100.00;95890.19;7411477;19;20424;-89
2023/07/31 10:14:23;;;;;;;4.53;2.30;;;;;;;19.83;100.00;95953.09;7409596;19;20399;-90
2023/07/31 10:16:52;;;;;;;5.80;2.77;;;;;;;19.72;100.00;95915.59;7400050;19;20385;-90
2023/07/31 10:19:21;;;;;;;4.20;2.80;;;;;;;20.23;100.00;95950.84;7403695;19;20377;-89
2023/07/31 10:21:49;;;;;;;3.90;2.57;;;;;;;20.27;100.00;95930.06;7401068;19;20408;-90
2023/07/31 10:24:16;;;;;;;5.00;2.97;;;;;;;19.67;100.00;95923.31;7403811;19;20863;-89
2023/07/31 10:26:45;;;;;;;3.77;2.50;;;;;;;19.72;100.00;95945.13;7402285;19;20369;-90
2023/07/31 10:29:13;;;;;;;3.40;2.10;;;;;;;18.92;100.00;95872.06;7404012;19;20982;-90
2023/07/31 10:31:41;;;;;;;6.83;2.73;;;;;;;18.90;100.00;95905.38;7400440;19;20409;-90
2023/07/31 10:34:08;;;;;;;4.03;2.60;;;;;;;18.99;100.00;95931.00;7405351;19;20408;-90
2023/07/31 10:36:35;;;;;;;3.33;2.43;;;;;;;18.71;100.00;95907.78;7402186;19;20384;-90
2023/07/31 10:39:04;;;;;;;3.87;2.43;;;;;;;18.92;100.00;95939.03;7398272;19;20943;-90
2023/07/31 10:41:31;;;;;;;3.97;2.60;;;;;;;18.98;100.00;95902.66;7400074;19;20424;-91
2023/07/31 10:44:00;;;;;;;3.77;2.13;;;;;;;19.55;100.00;95916.50;7400256;19;20396;-91
2023/07/31 10:46:28;;;;;;;4.73;2.70;;;;;;;19.70;100.00;95922.53;7400954;19;20377;-90
2023/07/31 10:49:01;;;;;;;2.30;2.10;;;;;;;20.19;100.00;95942.81;7399013;19;20381;-90
2023/07/31 10:51:35;;;;;;;3.67;2.43;;;;;;;19.76;100.00;95935.13;7400076;19;20421;-90
2023/07/31 10:54:14;;;;;;;6.13;3.63;;;;;;;19.53;100.00;95896.56;7400861;19;20455;-90
2023/07/31 10:56:45;;;;;;;2.77;2.13;;;;;;;19.21;100.00;95881.47;7403018;19;20416;-90
2023/07/31 10:59:13;;;;;;;3.00;2.47;;;;;;;19.10;100.00;95875.44;7399437;19;20471;-90
2023/07/31 11:01:53;;;;;;;4.00;2.70;;;;;;;19.57;100.00;95926.84;7400073;19;20459;-90
2023/07/31 11:04:25;;;;;;;6.37;2.70;;;;;;;19.77;100.00;95901.03;7401565;19;20400;-90
2023/07/31 11:07:00;;;;;;;6.90;2.60;;;;;;;19.71;100.00;95903.34;7399792;19;20377;-90
2023/07/31 11:09:33;;;;;;;3.77;2.23;;;;;;;19.69;100.00;95915.63;7400571;19;20352;-90
2023/07/31 11:12:00;;;;;;;2.97;2.60;;;;;;;19.37;100.00;95875.63;7395056;19;20425;-90
2023/07/31 11:14:27;;;;;;;4.00;2.37;;;;;;;19.11;100.00;95836.75;7400685;19;20376;-91
2023/07/31 11:16:54;;;;;;;3.20;2.90;;;;;;;19.49;100.00;95875.13;7398995;19;20372;-90
2023/07/31 11:19:25;;;;;;;7.60;3.30;;;;;;;19.91;100.00;95902.81;7399311;19;20400;-91
2023/07/31 11:21:53;;;;;;;4.60;2.43;;;;;;;20.60;100.00;95913.25;7398919;19;20404;-90
2023/07/31 11:24:20;;;;;;;3.57;2.67;;;;;;;20.00;100.00;95842.13;7401885;19;20359;-90
2023/07/31 11:26:52;;;;;;;3.30;2.50;;;;;;;19.91;100.00;95881.34;7402127;19;20442;-91
2023/07/31 11:29:20;;;;;;;3.40;2.40;;;;;;;20.20;100.00;95857.66;7401059;19;20393;-91
2023/07/31 11:31:49;;;;;;;4.60;2.70;;;;;;;19.33;100.00;95714.78;7401016;19;20489;-90
2023/07/31 11:34:17;;;;;;;2.83;2.63;;;;;;;19.41;100.00;95735.00;7398611;19;20721;-90
2023/07/31 11:36:54;;;;;;;4.17;3.00;;;;;;;19.73;100.00;95809.81;7400013;19;20405;-90
2023/07/31 11:39:22;;;;;;;3.03;2.73;;;;;;;20.16;100.00;95895.28;7396897;19;20836;-90
2023/07/31 11:41:49;;;;;;;4.07;2.47;;;;;;;19.81;100.00;95845.41;7398623;19;20441;-90
2023/07/31 11:44:15;;;;;;;3.10;2.90;;;;;;;19.89;100.00;95889.00;7399066;19;20403;-91
2023/07/31 11:46:56;;;;;;;4.43;2.73;;;;;;;19.70;100.00;95893.78;7401531;19;20381;-91
2023/07/31 11:49:23;;;;;;;6.60;3.67;;;;;;;19.65;100.00;95891.53;7400470;19;20437;-90
2023/07/31 11:51:51;;;;;;;5.83;3.03;;;;;;;20.03;100.00;95825.25;7398272;19;20495;-91
2023/07/31 11:54:18;;;;;;;5.90;2.70;;;;;;;20.76;100.00;95868.94;7402451;19;20356;-91
2023/07/31 11:56:45;;;;;;;6.07;3.20;;;;;;;21.11;100.00;95865.78;7403353;19;20377;-91
2023/07/31 11:59:12;;;;;;;4.10;2.97;;;;;;;21.28;97.81;95825.59;7394211;19;20372;-90
2023/07/31 12:01:40;;;;;;;7.20;3.40;;;;;;;21.96;98.35;95887.91;7397146;19;20447;-91
2023/07/31 12:04:07;;;;;;;5.47;4.10;;;;;;;21.19;96.72;95859.13;7399866;19;20939;-90
2023/07/31 12:06:35;;;;;;;4.40;3.00;;;;;;;20.92;96.24;95874.47;7398055;19;20373;-91
2023/07/31 12:09:04;;;;;;;4.50;3.20;;;;;;;20.17;98.22;95834.31;7397704;19;20467;-91
2023/07/31 12:11:31;;;;;;;3.63;2.60;;;;;;;20.00;100.00;95874.34;7397871;19;20432;-91
2023/07/31 12:13:59;;;;;;;4.57;2.70;;;;;;;19.67;100.00;95816.78;7398415;19;20381;-91
2023/07/31 12:16:28;;;;;;;3.67;2.70;;;;;;;19.87;100.00;95867.19;7400151;19;20431;-90
2023/07/31 12:18:55;;;;;;;5.37;3.63;;;;;;;19.42;100.00;95792.06;7396341;19;20392;-90
2023/07/31 12:21:22;;;;;;;6.53;3.00;;;;;;;20.03;100.00;95862.84;7396873;19;20786;-91
2023/07/31 12:23:53;;;;;;;4.83;3.00;;;;;;;19.73;100.00;95820.53;7400098;19;20384;-90
2023/07/31 12:26:20;;;;;;;3.07;2.73;;;;;;;19.33;100.00;95795.19;7398766;19;20388;-90
2023/07/31 12:28:49;;;;;;;5.23;3.10;;;;;;;19.71;100.00;95865.03;7400723;19;20936;-90
2023/07/31 12:31:22;;;;;;;4.37;2.93;;;;;;;19.46;100.00;95846.44;7397271;19;20428;-91
2023/07/31 12:33:51;;;;;;;5.20;3.33;;;;;;;19.55;100.00;95857.50;7397835;19;20389;-90
2023/07/31 12:36:22;;;;;;;5.53;2.70;;;;;;;19.21;100.00;95787.63;7398805;19;20934;-91
2023/07/31 12:38:50;;;;;;;3.70;2.93;;;;;;;19.07;100.00;95793.88;7399710;19;20732;-91
2023/07/31 12:41:19;;;;;;;4.73;3.10;;;;;;;19.11;100.00;95812.63;7399762;19;20491;-91
2023/07/31 12:43:46;;;;;;;3.97;3.17;;;;;;;19.06;100.00;95800.38;7401919;19;20887;-90
2023/07/31 12:46:14;;;;;;;5.40;3.30;;;;;;;19.29;100.00;95817.84;7399647;19;20393;-92
2023/07/31 12:48:41;;;;;;;4.60;3.00;;;;;;;19.27;100.00;95810.19;7399704;19;20380;-92
2023/07/31 12:51:08;;;;;;;4.00;2.30;;;;;;;19.55;100.00;95825.31;7394706;19;20420;-93
2023/07/31 12:53:35;;;;;;;3.53;3.23;;;;;;;19.35;100.00;95754.59;7396302;19;20428;-93
2023/07/31 12:56:22;;;;;;;5.50;2.83;;;;;;;19.62;100.00;95797.66;7397851;19;20919;-92
2023/07/31 12:58:49;;;;;;;4.47;3.10;;;;;;;19.87;100.00;95838.44;7391613;19;20411;-92
2023/07/31 13:01:16;;;;;;;5.10;3.80;;;;;;;18.96;100.00;95694.03;7391788;19;20444;-93
2023/07/31 13:03:44;;;;;;;4.40;3.40;;;;;;;18.91;100.00;95667.69;7395386;19;21076;-90
2023/07/31 13:06:11;;;;;;;3.10;2.80;;;;;;;18.39;100.00;95587.38;7398400;19;20400;-91
2023/07/31 13:08:38;;;;;;;4.67;3.10;;;;;;;18.31;100.00;95592.03;7395765;19;20480;-91
2023/07/31 13:11:05;;;;;;;4.30;3.00;;;;;;;18.89;100.00;95681.47;7396992;19;20422;-91
2023/07/31 13:13:32;;;;;;;7.03;2.60;;;;;;;19.45;100.00;95718.88;7396212;19;20399;-90
2023/07/31 13:15:59;;;;;;;3.53;2.73;;;;;;;19.94;100.00;95786.63;7399199;19;20423;-91
2023/07/31 13:18:26;;;;;;;3.27;2.80;;;;;;;18.70;100.00;95611.66;7404713;19;20373;-91
2023/07/31 13:20:53;;;;;;;3.73;2.83;;;;;;;19.98;100.00;95790.78;7399769;19;20777;-91
2023/07/31 13:23:20;;;;;;;3.97;2.80;;;;;;;19.56;100.00;95741.03;7395359;19;20389;-91
2023/07/31 13:25:48;;;;;;;4.57;3.27;;;;;;;19.73;100.00;95756.16;7397595;19;20845;-91
2023/07/31 13:28:15;;;;;;;4.27;3.47;;;;;;;19.26;100.00;95631.00;7393212;19;20746;-91
2023/07/31 13:30:42;;;;;;;4.47;3.23;;;;;;;19.88;100.00;95724.56;7394306;19;20466;-91
2023/07/31 13:33:09;;;;;;;4.70;3.17;;;;;;;19.55;100.00;95661.72;7402354;19;20447;-91
2023/07/31 13:35:55;;;;;;;5.37;3.20;;;;;;;19.69;100.00;95682.25;7403769;19;20388;-91
2023/07/31 13:38:22;;;;;;;5.50;4.27;;;;;;;19.60;100.00;95688.09;7405995;19;20385;-91
2023/07/31 13:40:49;;;;;;;7.00;3.87;;;;;;;20.13;100.00;95769.16;7407391;19;20409;-91
2023/07/31 13:43:16;;;;;;;6.00;4.10;;;;;;;19.29;100.00;95648.97;7429434;19;20360;-90
2023/07/31 13:45:43;;;;;;;4.27;2.83;;;;;;;18.41;100.00;95509.34;7412738;19;20396;-91
2023/07/31 13:48:10;;;;;;;3.20;2.90;;;;;;;19.24;100.00;95660.13;7409484;19;20950;-91
2023/07/31 13:50:37;;;;;;;4.20;3.17;;;;;;;19.53;100.00;95688.16;7421609;19;20435;-92